Terminal Aerodrome Forecast
Issued by NWS Goodland, KS

Home | Current Version | Previous Version | Text Only | Print | Product List | Glossary On
Versions: 1 2 3 4 5 6 7 8 9 10 11 12 13 14 15 16 17 18 19 20
000
FTUS43 KGLD 260520
TAFGLD
TAF
KGLD 260520Z 2606/2706 01015G23KT P6SM OVC009
     FM260730 35015G23KT P6SM OVC020
     FM260900 34015KT P6SM BKN060
     FM261400 34015G25KT P6SM SCT200
     FM270100 VRB06KT P6SM FEW200=

USA.gov is the U.S. government's official web portal to all federal, state and local government web resources and services.